Terminal Aerodrome Forecast
Issued by NWS

Home | Current Version | Previous Version | Text Only | Print | Product List | Glossary On
Versions: 1 2 3 4 5 6 7 8 9 10 11 12 13 14 15 16 17 18 19 20 21 22 23 24
000
FTUS46 KMTR 200520
TAFOAK
TAF
KOAK 200520Z 2006/2112 VRB05KT P6SM FEW004
     FM201100 VRB03KT 6SM BR SCT005
     FM201500 VRB03KT P6SM FEW005
     FM202100 29010KT P6SM SKC
     FM210300 29005KT P6SM SKC
     FM210700 VRB04KT P6SM SKC=

USA.gov is the U.S. government's official web portal to all federal, state and local government web resources and services.